sensor_id;sensor_type;location;lat;lon;timestamp;temperature;humidity
3727;DHT22;1879;45.876;12.300;2022-09-09T00:02:27;22.20;99.90
3727;DHT22;1879;45.876;12.300;2022-09-09T00:04:59;22.20;99.90
3727;DHT22;1879;45.876;12.300;2022-09-09T00:07:37;22.30;99.90
3727;DHT22;1879;45.876;12.300;2022-09-09T00:10:21;22.30;99.90
3727;DHT22;1879;45.876;12.300;2022-09-09T00:12:54;22.20;99.90
3727;DHT22;1879;45.876;12.300;2022-09-09T00:15:26;22.20;99.90
3727;DHT22;1879;45.876;12.300;2022-09-09T00:18:00;22.20;99.90
3727;DHT22;1879;45.876;12.300;2022-09-09T00:20:31;22.20;99.90
3727;DHT22;1879;45.876;12.300;2022-09-09T00:23:03;22.20;99.90
3727;DHT22;1879;45.876;12.300;2022-09-09T00:25:37;22.10;99.90
3727;DHT22;1879;45.876;12.300;2022-09-09T00:28:13;22.10;99.90
3727;DHT22;1879;45.876;12.300;2022-09-09T00:30:43;22.10;99.90
3727;DHT22;1879;45.876;12.300;2022-09-09T00:33:13;22.10;99.90
3727;DHT22;1879;45.876;12.300;2022-09-09T00:35:44;22.00;99.90
3727;DHT22;1879;45.876;12.300;2022-09-09T00:38:14;22.00;99.90
3727;DHT22;1879;45.876;12.300;2022-09-09T00:40:49;22.00;99.90
3727;DHT22;1879;45.876;12.300;2022-09-09T00:43:26;22.00;99.90
3727;DHT22;1879;45.876;12.300;2022-09-09T00:49:04;22.00;99.90
3727;DHT22;1879;45.876;12.300;2022-09-09T00:51:44;22.00;99.90
3727;DHT22;1879;45.876;12.300;2022-09-09T00:54:24;21.90;99.90
3727;DHT22;1879;45.876;12.300;2022-09-09T00:57:05;22.00;99.90
3727;DHT22;1879;45.876;12.300;2022-09-09T00:59:45;22.00;99.90
3727;DHT22;1879;45.876;12.300;2022-09-09T01:02:19;22.00;99.90
3727;DHT22;1879;45.876;12.300;2022-09-09T01:04:48;22.00;99.90
3727;DHT22;1879;45.876;12.300;2022-09-09T01:07:17;21.90;99.90
3727;DHT22;1879;45.876;12.300;2022-09-09T01:09:52;21.90;99.90
3727;DHT22;1879;45.876;12.300;2022-09-09T01:12:30;21.80;99.90
3727;DHT22;1879;45.876;12.300;2022-09-09T01:15:08;21.70;99.90
3727;DHT22;1879;45.876;12.300;2022-09-09T01:17:46;21.70;99.90
3727;DHT22;1879;45.876;12.300;2022-09-09T01:20:18;21.70;99.90
3727;DHT22;1879;45.876;12.300;2022-09-09T01:22:58;21.70;99.90
3727;DHT22;1879;45.876;12.300;2022-09-09T01:28:29;21.60;99.90
3727;DHT22;1879;45.876;12.300;2022-09-09T01:30:57;21.70;99.90
3727;DHT22;1879;45.876;12.300;2022-09-09T01:33:25;21.70;99.90
3727;DHT22;1879;45.876;12.300;2022-09-09T01:35:55;21.70;99.90
3727;DHT22;1879;45.876;12.300;2022-09-09T01:38:25;21.70;99.90
3727;DHT22;1879;45.876;12.300;2022-09-09T01:40:53;21.70;99.90
3727;DHT22;1879;45.876;12.300;2022-09-09T01:43:21;21.70;99.90
3727;DHT22;1879;45.876;12.300;2022-09-09T01:45:53;21.70;99.90
3727;DHT22;1879;45.876;12.300;2022-09-09T01:48:22;21.60;99.90
3727;DHT22;1879;45.876;12.300;2022-09-09T01:50:49;21.60;99.90
3727;DHT22;1879;45.876;12.300;2022-09-09T01:53:17;21.60;99.90
3727;DHT22;1879;45.876;12.300;2022-09-09T01:55:52;21.60;99.90
3727;DHT22;1879;45.876;12.300;2022-09-09T01:58:31;21.60;99.90
3727;DHT22;1879;45.876;12.300;2022-09-09T02:01:06;21.60;99.90
3727;DHT22;1879;45.876;12.300;2022-09-09T02:03:36;21.60;99.90
3727;DHT22;1879;45.876;12.300;2022-09-09T02:06:11;21.60;99.90
3727;DHT22;1879;45.876;12.300;2022-09-09T02:08:45;21.70;99.90
3727;DHT22;1879;45.876;12.300;2022-09-09T02:11:14;21.80;99.90
3727;DHT22;1879;45.876;12.300;2022-09-09T02:13:45;21.80;99.90
3727;DHT22;1879;45.876;12.300;2022-09-09T02:16:18;21.90;99.90
3727;DHT22;1879;45.876;12.300;2022-09-09T02:18:50;21.90;99.90
3727;DHT22;1879;45.876;12.300;2022-09-09T02:21:18;21.80;99.90
3727;DHT22;1879;45.876;12.300;2022-09-09T02:23:47;21.80;99.90
3727;DHT22;1879;45.876;12.300;2022-09-09T02:26:19;21.80;99.90
3727;DHT22;1879;45.876;12.300;2022-09-09T02:28:49;21.80;99.90
3727;DHT22;1879;45.876;12.300;2022-09-09T02:31:20;21.90;99.90
3727;DHT22;1879;45.876;12.300;2022-09-09T02:33:51;21.90;99.90
3727;DHT22;1879;45.876;12.300;2022-09-09T02:36:20;21.90;99.90
3727;DHT22;1879;45.876;12.300;2022-09-09T02:38:49;21.90;99.90
3727;DHT22;1879;45.876;12.300;2022-09-09T02:41:20;21.90;99.90
3727;DHT22;1879;45.876;12.300;2022-09-09T02:43:48;21.90;99.90
3727;DHT22;1879;45.876;12.300;2022-09-09T02:46:28;21.80;99.90
3727;DHT22;1879;45.876;12.300;2022-09-09T02:49:01;21.80;99.90
3727;DHT22;1879;45.876;12.300;2022-09-09T02:51:37;21.80;99.90
3727;DHT22;1879;45.876;12.300;2022-09-09T02:54:12;21.80;99.90
3727;DHT22;1879;45.876;12.300;2022-09-09T02:56:47;21.80;99.90
3727;DHT22;1879;45.876;12.300;2022-09-09T02:59:16;21.80;99.90
3727;DHT22;1879;45.876;12.300;2022-09-09T03:01:45;21.80;99.90
3727;DHT22;1879;45.876;12.300;2022-09-09T03:04:12;21.80;99.90
3727;DHT22;1879;45.876;12.300;2022-09-09T03:06:39;21.80;99.90
3727;DHT22;1879;45.876;12.300;2022-09-09T03:09:07;21.80;99.90
3727;DHT22;1879;45.876;12.300;2022-09-09T03:11:36;21.80;99.90
3727;DHT22;1879;45.876;12.300;2022-09-09T03:14:04;21.80;99.90
3727;DHT22;1879;45.876;12.300;2022-09-09T03:16:31;21.80;99.90
3727;DHT22;1879;45.876;12.300;2022-09-09T03:19:00;21.70;99.90
3727;DHT22;1879;45.876;12.300;2022-09-09T03:21:27;21.70;99.90
3727;DHT22;1879;45.876;12.300;2022-09-09T03:23:54;21.60;99.90
3727;DHT22;1879;45.876;12.300;2022-09-09T03:26:22;21.60;99.90
3727;DHT22;1879;45.876;12.300;2022-09-09T03:28:50;21.60;99.90
3727;DHT22;1879;45.876;12.300;2022-09-09T03:31:18;21.60;99.90
3727;DHT22;1879;45.876;12.300;2022-09-09T03:33:45;21.60;99.90
3727;DHT22;1879;45.876;12.300;2022-09-09T03:36:13;21.60;99.90
3727;DHT22;1879;45.876;12.300;2022-09-09T03:38:40;21.60;99.90
3727;DHT22;1879;45.876;12.300;2022-09-09T03:41:08;21.60;99.90
3727;DHT22;1879;45.876;12.300;2022-09-09T03:43:35;21.60;99.90
3727;DHT22;1879;45.876;12.300;2022-09-09T03:46:03;21.60;99.90
3727;DHT22;1879;45.876;12.300;2022-09-09T03:48:30;21.60;99.90
3727;DHT22;1879;45.876;12.300;2022-09-09T03:50:57;21.50;99.90
3727;DHT22;1879;45.876;12.300;2022-09-09T03:53:28;21.50;99.90
3727;DHT22;1879;45.876;12.300;2022-09-09T03:55:56;21.50;99.90
3727;DHT22;1879;45.876;12.300;2022-09-09T03:58:26;21.60;99.90
3727;DHT22;1879;45.876;12.300;2022-09-09T04:00:54;21.60;99.90
3727;DHT22;1879;45.876;12.300;2022-09-09T04:03:22;21.60;99.90
3727;DHT22;1879;45.876;12.300;2022-09-09T04:05:50;21.60;99.90
3727;DHT22;1879;45.876;12.300;2022-09-09T04:08:17;21.60;99.90
3727;DHT22;1879;45.876;12.300;2022-09-09T04:10:46;21.70;99.90
3727;DHT22;1879;45.876;12.300;2022-09-09T04:13:16;21.80;99.90
3727;DHT22;1879;45.876;12.300;2022-09-09T04:15:44;21.70;99.90
3727;DHT22;1879;45.876;12.300;2022-09-09T04:18:16;21.80;99.90
3727;DHT22;1879;45.876;12.300;2022-09-09T04:20:46;21.80;99.90
3727;DHT22;1879;45.876;12.300;2022-09-09T04:23:13;21.90;99.90
3727;DHT22;1879;45.876;12.300;2022-09-09T04:25:45;21.90;99.90
3727;DHT22;1879;45.876;12.300;2022-09-09T04:28:12;21.90;99.90
3727;DHT22;1879;45.876;12.300;2022-09-09T04:30:39;22.00;99.90
3727;DHT22;1879;45.876;12.300;2022-09-09T04:33:07;21.90;99.90
3727;DHT22;1879;45.876;12.300;2022-09-09T04:35:35;21.90;99.90
3727;DHT22;1879;45.876;12.300;2022-09-09T04:38:02;21.90;99.90
3727;DHT22;1879;45.876;12.300;2022-09-09T04:40:30;21.90;99.90
3727;DHT22;1879;45.876;12.300;2022-09-09T04:42:59;21.90;99.90
3727;DHT22;1879;45.876;12.300;2022-09-09T04:45:27;21.90;99.90
3727;DHT22;1879;45.876;12.300;2022-09-09T04:47:54;21.90;99.90
3727;DHT22;1879;45.876;12.300;2022-09-09T04:50:24;21.90;99.90
3727;DHT22;1879;45.876;12.300;2022-09-09T04:52:51;21.90;99.90
3727;DHT22;1879;45.876;12.300;2022-09-09T04:55:18;21.90;99.90
3727;DHT22;1879;45.876;12.300;2022-09-09T04:57:46;22.00;99.90
3727;DHT22;1879;45.876;12.300;2022-09-09T05:00:16;22.10;99.90
3727;DHT22;1879;45.876;12.300;2022-09-09T05:02:44;22.20;99.90
3727;DHT22;1879;45.876;12.300;2022-09-09T05:05:11;22.20;99.90
3727;DHT22;1879;45.876;12.300;2022-09-09T05:07:38;22.20;99.90
3727;DHT22;1879;45.876;12.300;2022-09-09T05:10:06;22.20;99.90
3727;DHT22;1879;45.876;12.300;2022-09-09T05:12:33;22.20;99.90
3727;DHT22;1879;45.876;12.300;2022-09-09T05:15:00;22.30;99.90
3727;DHT22;1879;45.876;12.300;2022-09-09T05:17:28;22.40;99.90
3727;DHT22;1879;45.876;12.300;2022-09-09T05:19:55;22.40;99.90
3727;DHT22;1879;45.876;12.300;2022-09-09T05:22:22;22.40;99.90
3727;DHT22;1879;45.876;12.300;2022-09-09T05:24:49;22.40;99.90
3727;DHT22;1879;45.876;12.300;2022-09-09T05:27:17;22.50;99.90
3727;DHT22;1879;45.876;12.300;2022-09-09T05:29:45;22.60;99.90
3727;DHT22;1879;45.876;12.300;2022-09-09T05:32:12;22.70;99.90
3727;DHT22;1879;45.876;12.300;2022-09-09T05:34:42;22.80;99.90
3727;DHT22;1879;45.876;12.300;2022-09-09T05:37:09;22.80;99.90
3727;DHT22;1879;45.876;12.300;2022-09-09T05:39:36;22.80;99.90
3727;DHT22;1879;45.876;12.300;2022-09-09T05:42:04;22.90;99.90
3727;DHT22;1879;45.876;12.300;2022-09-09T05:44:31;22.90;99.90
3727;DHT22;1879;45.876;12.300;2022-09-09T05:46:58;22.90;99.90
3727;DHT22;1879;45.876;12.300;2022-09-09T05:49:25;23.00;99.90
3727;DHT22;1879;45.876;12.300;2022-09-09T05:51:53;23.10;99.90
3727;DHT22;1879;45.876;12.300;2022-09-09T05:54:20;23.10;99.90
3727;DHT22;1879;45.876;12.300;2022-09-09T05:56:47;23.20;99.90
3727;DHT22;1879;45.876;12.300;2022-09-09T05:59:15;23.20;99.90
3727;DHT22;1879;45.876;12.300;2022-09-09T06:01:42;23.30;99.90
3727;DHT22;1879;45.876;12.300;2022-09-09T06:04:10;23.30;99.90
3727;DHT22;1879;45.876;12.300;2022-09-09T06:06:38;23.40;99.90
3727;DHT22;1879;45.876;12.300;2022-09-09T06:09:09;23.60;99.90
3727;DHT22;1879;45.876;12.300;2022-09-09T06:11:38;23.70;99.90
3727;DHT22;1879;45.876;12.300;2022-09-09T06:14:06;23.70;99.90
3727;DHT22;1879;45.876;12.300;2022-09-09T06:16:33;23.70;99.90
3727;DHT22;1879;45.876;12.300;2022-09-09T06:19:03;23.70;99.90
3727;DHT22;1879;45.876;12.300;2022-09-09T06:21:31;23.60;99.90
3727;DHT22;1879;45.876;12.300;2022-09-09T06:23:59;23.60;99.90
3727;DHT22;1879;45.876;12.300;2022-09-09T06:26:29;23.60;99.90
3727;DHT22;1879;45.876;12.300;2022-09-09T06:29:00;23.60;99.90
3727;DHT22;1879;45.876;12.300;2022-09-09T06:31:29;23.60;99.90
3727;DHT22;1879;45.876;12.300;2022-09-09T06:33:58;23.70;99.90
3727;DHT22;1879;45.876;12.300;2022-09-09T06:36:26;23.80;99.90
3727;DHT22;1879;45.876;12.300;2022-09-09T06:38:54;23.90;99.90
3727;DHT22;1879;45.876;12.300;2022-09-09T06:41:23;24.10;99.90
3727;DHT22;1879;45.876;12.300;2022-09-09T06:43:53;24.20;99.90
3727;DHT22;1879;45.876;12.300;2022-09-09T06:46:21;24.20;99.90
3727;DHT22;1879;45.876;12.300;2022-09-09T06:48:49;24.20;99.90
3727;DHT22;1879;45.876;12.300;2022-09-09T06:51:17;24.20;99.90
3727;DHT22;1879;45.876;12.300;2022-09-09T06:53:45;24.30;99.90
3727;DHT22;1879;45.876;12.300;2022-09-09T06:56:21;24.30;99.90
3727;DHT22;1879;45.876;12.300;2022-09-09T06:58:49;24.50;99.90
3727;DHT22;1879;45.876;12.300;2022-09-09T07:01:20;24.60;99.90
3727;DHT22;1879;45.876;12.300;2022-09-09T07:03:48;24.70;99.90
3727;DHT22;1879;45.876;12.300;2022-09-09T07:06:18;24.80;99.90
3727;DHT22;1879;45.876;12.300;2022-09-09T07:08:50;24.90;99.90
3727;DHT22;1879;45.876;12.300;2022-09-09T07:11:19;24.90;99.90
3727;DHT22;1879;45.876;12.300;2022-09-09T07:13:46;24.90;99.90
3727;DHT22;1879;45.876;12.300;2022-09-09T07:16:15;25.00;99.90
3727;DHT22;1879;45.876;12.300;2022-09-09T07:18:44;25.20;99.90
3727;DHT22;1879;45.876;12.300;2022-09-09T07:21:12;25.40;99.90
3727;DHT22;1879;45.876;12.300;2022-09-09T07:23:40;25.60;99.90
3727;DHT22;1879;45.876;12.300;2022-09-09T07:26:08;25.70;99.90
3727;DHT22;1879;45.876;12.300;2022-09-09T07:28:36;25.80;99.90
3727;DHT22;1879;45.876;12.300;2022-09-09T07:31:05;25.90;99.90
3727;DHT22;1879;45.876;12.300;2022-09-09T07:33:33;25.80;99.90
3727;DHT22;1879;45.876;12.300;2022-09-09T07:36:07;25.80;99.90
3727;DHT22;1879;45.876;12.300;2022-09-09T07:38:38;25.80;99.90
3727;DHT22;1879;45.876;12.300;2022-09-09T07:41:08;25.90;99.90
3727;DHT22;1879;45.876;12.300;2022-09-09T07:43:38;26.10;99.90
3727;DHT22;1879;45.876;12.300;2022-09-09T07:46:06;26.40;99.90
3727;DHT22;1879;45.876;12.300;2022-09-09T07:48:34;26.40;99.90
3727;DHT22;1879;45.876;12.300;2022-09-09T07:51:08;26.50;99.90
3727;DHT22;1879;45.876;12.300;2022-09-09T07:53:36;26.50;99.90
3727;DHT22;1879;45.876;12.300;2022-09-09T07:56:05;26.50;99.90
3727;DHT22;1879;45.876;12.300;2022-09-09T07:58:33;26.50;99.90
3727;DHT22;1879;45.876;12.300;2022-09-09T08:01:00;26.30;99.90
3727;DHT22;1879;45.876;12.300;2022-09-09T08:03:27;26.10;99.90
3727;DHT22;1879;45.876;12.300;2022-09-09T08:06:01;26.10;99.90
3727;DHT22;1879;45.876;12.300;2022-09-09T08:08:30;26.20;99.90
3727;DHT22;1879;45.876;12.300;2022-09-09T08:11:07;26.40;99.90
3727;DHT22;1879;45.876;12.300;2022-09-09T08:13:35;26.60;99.90
3727;DHT22;1879;45.876;12.300;2022-09-09T08:16:09;26.60;99.90
3727;DHT22;1879;45.876;12.300;2022-09-09T08:18:37;26.60;99.90
3727;DHT22;1879;45.876;12.300;2022-09-09T08:21:06;26.50;99.90
3727;DHT22;1879;45.876;12.300;2022-09-09T08:23:35;26.50;99.90
3727;DHT22;1879;45.876;12.300;2022-09-09T08:26:07;26.40;99.90
3727;DHT22;1879;45.876;12.300;2022-09-09T08:28:34;26.40;99.90
3727;DHT22;1879;45.876;12.300;2022-09-09T08:31:06;26.40;99.90
3727;DHT22;1879;45.876;12.300;2022-09-09T08:33:33;26.40;99.90
3727;DHT22;1879;45.876;12.300;2022-09-09T08:36:02;26.30;99.90
3727;DHT22;1879;45.876;12.300;2022-09-09T08:38:29;26.40;99.90
3727;DHT22;1879;45.876;12.300;2022-09-09T08:41:07;26.40;99.90
3727;DHT22;1879;45.876;12.300;2022-09-09T08:43:37;26.50;99.90
3727;DHT22;1879;45.876;12.300;2022-09-09T08:46:09;26.70;99.90
3727;DHT22;1879;45.876;12.300;2022-09-09T08:48:49;26.70;99.90
3727;DHT22;1879;45.876;12.300;2022-09-09T08:51:19;26.90;99.90
3727;DHT22;1879;45.876;12.300;2022-09-09T08:53:49;26.90;99.90
3727;DHT22;1879;45.876;12.300;2022-09-09T08:56:23;26.90;99.90
3727;DHT22;1879;45.876;12.300;2022-09-09T08:58:52;27.10;99.90
3727;DHT22;1879;45.876;12.300;2022-09-09T09:01:35;27.20;99.90
3727;DHT22;1879;45.876;12.300;2022-09-09T09:04:12;27.30;99.90
3727;DHT22;1879;45.876;12.300;2022-09-09T09:06:48;27.50;99.90
3727;DHT22;1879;45.876;12.300;2022-09-09T09:09:22;27.50;99.90
3727;DHT22;1879;45.876;12.300;2022-09-09T09:11:55;27.70;99.90
3727;DHT22;1879;45.876;12.300;2022-09-09T09:14:28;27.60;99.90
3727;DHT22;1879;45.876;12.300;2022-09-09T09:16:58;27.60;99.90
3727;DHT22;1879;45.876;12.300;2022-09-09T09:19:27;27.70;99.90
3727;DHT22;1879;45.876;12.300;2022-09-09T09:22:01;27.60;99.90
3727;DHT22;1879;45.876;12.300;2022-09-09T09:24:40;27.60;99.90
3727;DHT22;1879;45.876;12.300;2022-09-09T09:27:13;27.70;99.90
3727;DHT22;1879;45.876;12.300;2022-09-09T09:29:41;27.70;99.90
3727;DHT22;1879;45.876;12.300;2022-09-09T09:32:13;27.80;99.90
3727;DHT22;1879;45.876;12.300;2022-09-09T09:34:40;28.00;99.90
3727;DHT22;1879;45.876;12.300;2022-09-09T09:37:15;28.00;99.90
3727;DHT22;1879;45.876;12.300;2022-09-09T09:39:44;28.00;99.90
3727;DHT22;1879;45.876;12.300;2022-09-09T09:42:14;27.90;99.90
3727;DHT22;1879;45.876;12.300;2022-09-09T09:44:42;27.50;99.90
3727;DHT22;1879;45.876;12.300;2022-09-09T09:47:12;27.40;99.90
3727;DHT22;1879;45.876;12.300;2022-09-09T09:49:45;27.50;99.90
3727;DHT22;1879;45.876;12.300;2022-09-09T09:52:21;27.60;99.90
3727;DHT22;1879;45.876;12.300;2022-09-09T09:54:50;27.80;99.90
3727;DHT22;1879;45.876;12.300;2022-09-09T09:57:23;27.90;99.90
3727;DHT22;1879;45.876;12.300;2022-09-09T10:00:01;28.00;99.40
3727;DHT22;1879;45.876;12.300;2022-09-09T10:02:37;28.00;99.00
3727;DHT22;1879;45.876;12.300;2022-09-09T10:05:08;27.90;99.30
3727;DHT22;1879;45.876;12.300;2022-09-09T10:07:38;27.80;99.40
3727;DHT22;1879;45.876;12.300;2022-09-09T10:10:10;27.60;99.70
3727;DHT22;1879;45.876;12.300;2022-09-09T10:12:52;27.30;99.80
3727;DHT22;1879;45.876;12.300;2022-09-09T10:15:31;27.00;99.90
3727;DHT22;1879;45.876;12.300;2022-09-09T10:18:11;26.80;99.90
3727;DHT22;1879;45.876;12.300;2022-09-09T10:20:48;26.70;99.90
3727;DHT22;1879;45.876;12.300;2022-09-09T10:23:29;26.60;99.90
3727;DHT22;1879;45.876;12.300;2022-09-09T10:26:12;26.70;99.90
3727;DHT22;1879;45.876;12.300;2022-09-09T10:29:10;26.60;99.90
3727;DHT22;1879;45.876;12.300;2022-09-09T10:31:49;26.70;99.90
3727;DHT22;1879;45.876;12.300;2022-09-09T10:34:31;26.70;99.90
3727;DHT22;1879;45.876;12.300;2022-09-09T10:37:06;26.80;99.90
3727;DHT22;1879;45.876;12.300;2022-09-09T10:39:39;26.90;99.90
3727;DHT22;1879;45.876;12.300;2022-09-09T10:42:09;27.10;99.90
3727;DHT22;1879;45.876;12.300;2022-09-09T10:44:51;27.20;99.90
3727;DHT22;1879;45.876;12.300;2022-09-09T10:47:40;27.30;99.90
3727;DHT22;1879;45.876;12.300;2022-09-09T10:50:23;27.40;99.90
3727;DHT22;1879;45.876;12.300;2022-09-09T10:52:58;27.40;99.90
3727;DHT22;1879;45.876;12.300;2022-09-09T10:55:32;27.40;99.90
3727;DHT22;1879;45.876;12.300;2022-09-09T10:58:03;27.40;99.90
3727;DHT22;1879;45.876;12.300;2022-09-09T11:00:40;27.30;99.90
3727;DHT22;1879;45.876;12.300;2022-09-09T11:03:14;27.20;99.90
3727;DHT22;1879;45.876;12.300;2022-09-09T11:05:45;27.20;99.90
3727;DHT22;1879;45.876;12.300;2022-09-09T11:08:17;27.30;99.90
3727;DHT22;1879;45.876;12.300;2022-09-09T11:10:50;27.50;99.90
3727;DHT22;1879;45.876;12.300;2022-09-09T11:13:24;27.60;99.90
3727;DHT22;1879;45.876;12.300;2022-09-09T11:15:58;27.80;99.50
3727;DHT22;1879;45.876;12.300;2022-09-09T11:18:29;28.10;99.40
3727;DHT22;1879;45.876;12.300;2022-09-09T11:21:00;28.30;99.20
3727;DHT22;1879;45.876;12.300;2022-09-09T11:23:37;28.40;98.60
3727;DHT22;1879;45.876;12.300;2022-09-09T11:26:08;28.70;98.50
3727;DHT22;1879;45.876;12.300;2022-09-09T11:28:51;28.70;97.90
3727;DHT22;1879;45.876;12.300;2022-09-09T11:31:44;29.00;98.00
3727;DHT22;1879;45.876;12.300;2022-09-09T11:34:23;29.90;96.60
3727;DHT22;1879;45.876;12.300;2022-09-09T11:40:07;31.10;94.30
3727;DHT22;1879;45.876;12.300;2022-09-09T11:42:35;32.10;93.10
3727;DHT22;1879;45.876;12.300;2022-09-09T11:45:19;32.60;91.70
3727;DHT22;1879;45.876;12.300;2022-09-09T11:47:53;33.40;90.70
3727;DHT22;1879;45.876;12.300;2022-09-09T11:50:35;32.00;90.70
3727;DHT22;1879;45.876;12.300;2022-09-09T11:53:20;30.80;91.40
3727;DHT22;1879;45.876;12.300;2022-09-09T11:56:10;30.10;92.80
3727;DHT22;1879;45.876;12.300;2022-09-09T11:58:41;30.10;93.20
3727;DHT22;1879;45.876;12.300;2022-09-09T12:01:35;30.40;93.40
3727;DHT22;1879;45.876;12.300;2022-09-09T12:04:21;30.60;92.80
3727;DHT22;1879;45.876;12.300;2022-09-09T12:06:56;30.80;92.70
3727;DHT22;1879;45.876;12.300;2022-09-09T12:09:32;31.20;92.80
3727;DHT22;1879;45.876;12.300;2022-09-09T12:12:20;31.30;92.60
3727;DHT22;1879;45.876;12.300;2022-09-09T12:17:47;30.80;91.90
3727;DHT22;1879;45.876;12.300;2022-09-09T12:20:19;30.70;92.30
3727;DHT22;1879;45.876;12.300;2022-09-09T12:23:04;30.40;92.30
3727;DHT22;1879;45.876;12.300;2022-09-09T12:25:59;30.10;92.50
3727;DHT22;1879;45.876;12.300;2022-09-09T12:28:41;29.90;93.00
3727;DHT22;1879;45.876;12.300;2022-09-09T12:31:15;29.60;93.10
3727;DHT22;1879;45.876;12.300;2022-09-09T12:33:47;29.40;93.50
3727;DHT22;1879;45.876;12.300;2022-09-09T12:36:18;29.00;93.70
3727;DHT22;1879;45.876;12.300;2022-09-09T12:38:46;28.80;94.10
3727;DHT22;1879;45.876;12.300;2022-09-09T12:41:20;28.60;94.30
3727;DHT22;1879;45.876;12.300;2022-09-09T12:43:48;28.50;94.20
3727;DHT22;1879;45.876;12.300;2022-09-09T12:46:23;28.30;94.40
3727;DHT22;1879;45.876;12.300;2022-09-09T12:48:53;28.30;94.80
3727;DHT22;1879;45.876;12.300;2022-09-09T12:51:25;28.20;95.00
3727;DHT22;1879;45.876;12.300;2022-09-09T12:53:54;28.10;95.20
3727;DHT22;1879;45.876;12.300;2022-09-09T12:56:23;28.00;95.50
3727;DHT22;1879;45.876;12.300;2022-09-09T12:58:53;27.90;95.10
3727;DHT22;1879;45.876;12.300;2022-09-09T13:01:23;27.80;95.40
3727;DHT22;1879;45.876;12.300;2022-09-09T13:03:50;27.70;95.70
3727;DHT22;1879;45.876;12.300;2022-09-09T13:06:22;27.70;95.90
3727;DHT22;1879;45.876;12.300;2022-09-09T13:08:50;27.70;95.80
3727;DHT22;1879;45.876;12.300;2022-09-09T13:11:19;27.70;95.90
3727;DHT22;1879;45.876;12.300;2022-09-09T13:13:52;27.70;96.10
3727;DHT22;1879;45.876;12.300;2022-09-09T13:16:21;27.60;95.90
3727;DHT22;1879;45.876;12.300;2022-09-09T13:18:49;27.60;96.00
3727;DHT22;1879;45.876;12.300;2022-09-09T13:21:18;27.50;96.00
3727;DHT22;1879;45.876;12.300;2022-09-09T13:23:50;27.50;96.00
3727;DHT22;1879;45.876;12.300;2022-09-09T13:26:22;27.40;96.00
3727;DHT22;1879;45.876;12.300;2022-09-09T13:28:50;27.40;96.20
3727;DHT22;1879;45.876;12.300;2022-09-09T13:31:22;27.30;96.50
3727;DHT22;1879;45.876;12.300;2022-09-09T13:33:50;27.20;96.70
3727;DHT22;1879;45.876;12.300;2022-09-09T13:36:28;27.20;97.10
3727;DHT22;1879;45.876;12.300;2022-09-09T13:38:58;27.10;97.70
3727;DHT22;1879;45.876;12.300;2022-09-09T13:41:35;27.10;98.10
3727;DHT22;1879;45.876;12.300;2022-09-09T13:44:03;27.10;98.50
3727;DHT22;1879;45.876;12.300;2022-09-09T13:46:34;27.10;98.90
3727;DHT22;1879;45.876;12.300;2022-09-09T13:49:18;27.10;99.30
3727;DHT22;1879;45.876;12.300;2022-09-09T13:51:47;27.10;99.70
3727;DHT22;1879;45.876;12.300;2022-09-09T13:54:19;27.00;99.90
3727;DHT22;1879;45.876;12.300;2022-09-09T13:56:47;26.80;99.90
3727;DHT22;1879;45.876;12.300;2022-09-09T13:59:16;26.70;99.90
3727;DHT22;1879;45.876;12.300;2022-09-09T14:01:45;26.60;99.90
3727;DHT22;1879;45.876;12.300;2022-09-09T14:04:12;26.60;99.90
3727;DHT22;1879;45.876;12.300;2022-09-09T14:06:40;26.40;99.90
3727;DHT22;1879;45.876;12.300;2022-09-09T14:09:09;26.10;99.90
3727;DHT22;1879;45.876;12.300;2022-09-09T14:11:38;26.10;99.90
3727;DHT22;1879;45.876;12.300;2022-09-09T14:14:06;26.10;99.90
3727;DHT22;1879;45.876;12.300;2022-09-09T14:16:33;26.10;99.90
3727;DHT22;1879;45.876;12.300;2022-09-09T14:19:03;26.20;99.90
3727;DHT22;1879;45.876;12.300;2022-09-09T14:21:30;26.10;99.90
3727;DHT22;1879;45.876;12.300;2022-09-09T14:23:58;26.00;99.90
3727;DHT22;1879;45.876;12.300;2022-09-09T14:26:25;25.90;99.90
3727;DHT22;1879;45.876;12.300;2022-09-09T14:28:56;25.90;99.90
3727;DHT22;1879;45.876;12.300;2022-09-09T14:31:23;25.80;99.90
3727;DHT22;1879;45.876;12.300;2022-09-09T14:33:51;25.70;99.90
3727;DHT22;1879;45.876;12.300;2022-09-09T14:36:19;25.50;99.90
3727;DHT22;1879;45.876;12.300;2022-09-09T14:38:46;25.40;99.90
3727;DHT22;1879;45.876;12.300;2022-09-09T14:41:15;25.40;99.90
3727;DHT22;1879;45.876;12.300;2022-09-09T14:43:44;25.50;99.90
3727;DHT22;1879;45.876;12.300;2022-09-09T14:46:14;25.40;99.90
3727;DHT22;1879;45.876;12.300;2022-09-09T14:48:41;24.90;99.90
3727;DHT22;1879;45.876;12.300;2022-09-09T14:51:11;24.80;99.90
3727;DHT22;1879;45.876;12.300;2022-09-09T14:53:38;25.00;99.90
3727;DHT22;1879;45.876;12.300;2022-09-09T14:56:07;25.40;99.90
3727;DHT22;1879;45.876;12.300;2022-09-09T14:58:34;25.70;99.90
3727;DHT22;1879;45.876;12.300;2022-09-09T15:01:03;25.90;99.90
3727;DHT22;1879;45.876;12.300;2022-09-09T15:03:32;26.40;99.90
3727;DHT22;1879;45.876;12.300;2022-09-09T15:06:05;26.80;99.90
3727;DHT22;1879;45.876;12.300;2022-09-09T15:08:32;27.10;99.90
3727;DHT22;1879;45.876;12.300;2022-09-09T15:10:59;27.30;99.90
3727;DHT22;1879;45.876;12.300;2022-09-09T15:13:27;27.50;99.90
3727;DHT22;1879;45.876;12.300;2022-09-09T15:15:54;27.70;99.90
3727;DHT22;1879;45.876;12.300;2022-09-09T15:18:21;27.90;99.90
3727;DHT22;1879;45.876;12.300;2022-09-09T15:20:49;27.90;99.90
3727;DHT22;1879;45.876;12.300;2022-09-09T15:23:16;28.00;99.90
3727;DHT22;1879;45.876;12.300;2022-09-09T15:25:50;27.90;99.90
3727;DHT22;1879;45.876;12.300;2022-09-09T15:28:19;27.90;99.90
3727;DHT22;1879;45.876;12.300;2022-09-09T15:30:48;28.10;99.90
3727;DHT22;1879;45.876;12.300;2022-09-09T15:33:15;28.10;99.90
3727;DHT22;1879;45.876;12.300;2022-09-09T15:35:42;28.10;99.90
3727;DHT22;1879;45.876;12.300;2022-09-09T15:38:11;27.90;99.90
3727;DHT22;1879;45.876;12.300;2022-09-09T15:40:41;27.70;99.90
3727;DHT22;1879;45.876;12.300;2022-09-09T15:43:09;27.80;99.90
3727;DHT22;1879;45.876;12.300;2022-09-09T15:45:36;28.00;99.90
3727;DHT22;1879;45.876;12.300;2022-09-09T15:48:04;28.20;99.90
3727;DHT22;1879;45.876;12.300;2022-09-09T15:50:31;28.30;99.90
3727;DHT22;1879;45.876;12.300;2022-09-09T15:52:58;28.40;99.90
3727;DHT22;1879;45.876;12.300;2022-09-09T15:55:26;28.40;99.90
3727;DHT22;1879;45.876;12.300;2022-09-09T15:57:53;28.20;99.90
3727;DHT22;1879;45.876;12.300;2022-09-09T16:00:21;28.10;99.90
3727;DHT22;1879;45.876;12.300;2022-09-09T16:02:49;28.00;99.90
3727;DHT22;1879;45.876;12.300;2022-09-09T16:05:17;27.90;99.90
3727;DHT22;1879;45.876;12.300;2022-09-09T16:07:44;27.80;99.90
3727;DHT22;1879;45.876;12.300;2022-09-09T16:10:13;27.70;99.90
3727;DHT22;1879;45.876;12.300;2022-09-09T16:12:41;27.60;99.90
3727;DHT22;1879;45.876;12.300;2022-09-09T16:15:09;27.60;99.90
3727;DHT22;1879;45.876;12.300;2022-09-09T16:17:36;27.60;99.90
3727;DHT22;1879;45.876;12.300;2022-09-09T16:20:05;27.60;99.90
3727;DHT22;1879;45.876;12.300;2022-09-09T16:22:34;27.60;99.90